createdAt,value
2018-12-21T00:00:29.667Z,8.63
2018-12-21T00:01:29.654Z,8.63
2018-12-21T00:02:29.627Z,8.68
2018-12-21T00:03:29.616Z,8.68
2018-12-21T00:04:29.604Z,8.65
2018-12-21T00:05:29.605Z,8.69
2018-12-21T00:06:29.621Z,8.66
2018-12-21T00:07:29.590Z,8.69
2018-12-21T00:08:29.613Z,8.75
2018-12-21T00:09:29.587Z,8.69
2018-12-21T00:10:29.580Z,8.79
2018-12-21T00:11:29.586Z,8.88
2018-12-21T00:12:29.584Z,8.76
2018-12-21T00:13:29.552Z,8.87
2018-12-21T00:14:29.565Z,8.83
2018-12-21T00:15:29.586Z,8.75
2018-12-21T00:16:29.529Z,8.73
2018-12-21T00:17:34.473Z,8.78
2018-12-21T00:18:29.507Z,8.76
2018-12-21T00:19:29.486Z,8.83
2018-12-21T00:20:29.497Z,8.86
2018-12-21T00:21:29.478Z,8.90
2018-12-21T00:22:29.463Z,8.81
2018-12-21T00:23:29.496Z,8.84
2018-12-21T00:24:29.457Z,8.86
2018-12-21T00:25:29.492Z,8.87
2018-12-21T00:26:29.456Z,8.73
2018-12-21T00:27:29.438Z,8.81
2018-12-21T00:28:29.447Z,8.87
2018-12-21T00:29:29.473Z,8.83
2018-12-21T00:30:29.425Z,8.91
2018-12-21T00:31:29.436Z,8.93
2018-12-21T00:32:29.399Z,8.94
2018-12-21T00:33:29.424Z,8.88
2018-12-21T00:34:29.401Z,8.90
2018-12-21T00:35:29.396Z,8.90
2018-12-21T00:36:29.373Z,8.88
2018-12-21T00:37:29.354Z,8.87
2018-12-21T00:38:29.377Z,8.90
2018-12-21T00:39:29.352Z,8.87
2018-12-21T00:40:29.329Z,8.90
2018-12-21T00:41:29.329Z,8.86
2018-12-21T00:42:29.380Z,8.88
2018-12-21T00:43:29.338Z,8.78
2018-12-21T00:44:29.302Z,8.83
2018-12-21T00:45:29.305Z,8.78
2018-12-21T00:46:29.325Z,8.73
2018-12-21T00:47:29.414Z,8.84
2018-12-21T00:48:29.277Z,8.76
2018-12-21T00:49:29.338Z,8.79
2018-12-21T00:50:29.265Z,8.88
2018-12-21T00:51:30.302Z,8.72
2018-12-21T00:52:29.264Z,8.83
2018-12-21T00:53:29.258Z,8.87
2018-12-21T00:54:29.278Z,8.79
2018-12-21T00:55:29.261Z,8.81
2018-12-21T00:56:29.211Z,8.81
2018-12-21T00:57:29.272Z,8.81
2018-12-21T00:58:29.216Z,8.84
2018-12-21T00:59:29.228Z,8.86
2018-12-21T01:00:29.203Z,8.75
2018-12-21T01:01:29.219Z,8.83
2018-12-21T01:02:29.190Z,8.87
2018-12-21T01:03:29.219Z,8.93
2018-12-21T01:04:29.177Z,8.87
2018-12-21T01:05:29.196Z,8.91
2018-12-21T01:06:29.189Z,8.90
2018-12-21T01:07:29.202Z,8.86
2018-12-21T01:08:37.904Z,8.90
2018-12-21T01:10:34.727Z,8.90
2018-12-21T01:11:34.655Z,8.91
2018-12-21T01:12:34.668Z,8.91
2018-12-21T01:13:34.839Z,8.99
2018-12-21T01:14:34.606Z,9.04
2018-12-21T01:15:34.581Z,9.04
2018-12-21T01:16:34.573Z,9.06
2018-12-21T01:17:34.604Z,8.99
2018-12-21T01:18:34.565Z,8.91
2018-12-21T01:19:34.577Z,9.12
2018-12-21T01:20:34.602Z,9.09
2018-12-21T01:21:38.660Z,9.06
2018-12-21T01:22:34.610Z,9.02
2018-12-21T01:23:34.535Z,9.13
2018-12-21T01:24:34.532Z,9.12
2018-12-21T01:25:34.537Z,9.12
2018-12-21T01:26:34.530Z,9.13
2018-12-21T01:27:34.496Z,9.06
2018-12-21T01:28:34.502Z,9.09
2018-12-21T01:29:34.513Z,9.09
2018-12-21T01:30:34.518Z,9.12
2018-12-21T01:31:34.492Z,9.12
2018-12-21T01:32:34.484Z,9.12
2018-12-21T01:33:34.480Z,9.10
2018-12-21T01:34:34.474Z,9.05
2018-12-21T01:35:34.439Z,9.05
2018-12-21T01:36:34.428Z,9.05
2018-12-21T01:37:34.423Z,9.15
2018-12-21T01:38:34.487Z,9.09
2018-12-21T01:39:34.427Z,9.09
2018-12-21T01:40:34.405Z,9.10
2018-12-21T01:41:34.414Z,9.09
2018-12-21T01:42:34.382Z,9.12
2018-12-21T01:43:34.409Z,9.09
2018-12-21T01:44:34.375Z,9.18
2018-12-21T01:45:34.382Z,9.18
2018-12-21T01:46:34.375Z,9.06
2018-12-21T01:47:34.396Z,9.13
2018-12-21T01:48:34.349Z,9.25
2018-12-21T01:49:34.381Z,9.21
2018-12-21T01:50:34.337Z,9.13
2018-12-21T01:51:34.325Z,9.24
2018-12-21T01:52:34.324Z,9.16
2018-12-21T01:53:34.308Z,9.23
2018-12-21T01:54:34.316Z,9.04
2018-12-21T01:55:34.316Z,9.04
2018-12-21T01:56:34.319Z,9.09
2018-12-21T01:59:14.805Z,9.30
2018-12-21T02:00:24.350Z,9.24
2018-12-21T02:02:19.257Z,9.24
2018-12-21T02:03:19.166Z,9.27
2018-12-21T02:04:19.173Z,9.21
2018-12-21T02:05:19.158Z,9.27
2018-12-21T02:06:19.160Z,9.23
2018-12-21T02:07:19.144Z,9.18
2018-12-21T02:08:19.245Z,9.23
2018-12-21T02:09:19.109Z,9.23
2018-12-21T02:10:19.127Z,9.23
2018-12-21T02:11:19.096Z,9.24
2018-12-21T02:12:19.091Z,9.18
2018-12-21T02:13:19.098Z,9.28
2018-12-21T02:14:19.102Z,9.25
2018-12-21T02:15:19.062Z,9.24
2018-12-21T02:16:19.061Z,9.31
2018-12-21T02:17:19.069Z,9.32
2018-12-21T02:18:19.076Z,9.34
2018-12-21T02:19:19.072Z,9.31
2018-12-21T02:20:19.036Z,9.39
2018-12-21T02:21:19.062Z,9.31
2018-12-21T02:22:19.025Z,9.32
2018-12-21T02:23:19.068Z,9.23
2018-12-21T02:24:19.004Z,9.28
2018-12-21T02:25:19.001Z,9.27
2018-12-21T02:26:18.985Z,9.24
2018-12-21T02:27:18.997Z,9.24
2018-12-21T02:28:19.057Z,9.27
2018-12-21T02:29:18.982Z,9.24
2018-12-21T02:30:19.003Z,9.21
2018-12-21T02:31:18.965Z,9.25
2018-12-21T02:32:19.026Z,9.34
2018-12-21T02:33:18.941Z,9.24
2018-12-21T02:34:18.953Z,9.31
2018-12-21T02:35:18.944Z,9.28
2018-12-21T02:36:18.942Z,9.24
2018-12-21T02:37:18.907Z,9.24
2018-12-21T02:38:18.900Z,9.32
2018-12-21T02:39:18.920Z,9.25
2018-12-21T02:40:18.924Z,9.20
2018-12-21T02:41:18.937Z,9.23
2018-12-21T02:42:18.889Z,9.21
2018-12-21T02:43:18.887Z,9.16
2018-12-21T02:44:18.926Z,9.27
2018-12-21T02:45:18.895Z,9.30
2018-12-21T02:46:18.871Z,9.20
2018-12-21T02:47:18.929Z,9.21
2018-12-21T02:48:18.851Z,9.16
2018-12-21T02:49:18.858Z,9.23
2018-12-21T02:50:18.859Z,9.18
2018-12-21T02:51:18.816Z,9.28
2018-12-21T02:52:18.802Z,9.24
2018-12-21T02:53:18.823Z,9.25
2018-12-21T02:54:18.791Z,9.25
2018-12-21T02:55:18.812Z,9.23
2018-12-21T02:56:18.796Z,9.25
2018-12-21T03:14:09.938Z,9.21
2018-12-21T03:15:09.940Z,9.23
2018-12-21T03:16:09.954Z,9.24
2018-12-21T03:17:09.892Z,9.28
2018-12-21T03:18:09.854Z,9.27
2018-12-21T03:19:09.883Z,9.25
2018-12-21T03:20:09.850Z,9.21
2018-12-21T03:21:09.879Z,9.21
2018-12-21T03:22:14.550Z,9.20
2018-12-21T03:23:09.863Z,9.20
2018-12-21T03:24:09.805Z,9.28
2018-12-21T03:25:09.807Z,9.25
2018-12-21T03:26:09.794Z,9.24
2018-12-21T03:27:09.772Z,9.23
2018-12-21T03:28:09.799Z,9.21
2018-12-21T03:29:09.756Z,9.28
2018-12-21T03:30:09.796Z,9.28
2018-12-21T03:31:09.762Z,9.31
2018-12-21T03:32:09.746Z,9.23
2018-12-21T03:33:09.726Z,9.28
2018-12-21T03:34:09.731Z,9.24
2018-12-21T03:35:09.717Z,9.27
2018-12-21T03:36:09.712Z,9.30
2018-12-21T03:37:09.720Z,9.30
2018-12-21T03:38:09.727Z,9.30
2018-12-21T03:39:09.699Z,9.28
2018-12-21T03:40:09.668Z,9.31
2018-12-21T03:41:09.682Z,9.18
2018-12-21T03:42:09.666Z,9.31
2018-12-21T03:43:09.691Z,9.31
2018-12-21T03:44:09.674Z,9.28
2018-12-21T03:45:09.646Z,9.32
2018-12-21T03:46:09.657Z,9.38
2018-12-21T03:47:09.638Z,9.30
2018-12-21T03:48:09.635Z,9.28
2018-12-21T03:49:09.656Z,9.35
2018-12-21T03:50:09.638Z,9.25
2018-12-21T03:51:09.629Z,9.27
2018-12-21T03:52:09.596Z,9.28
2018-12-21T03:53:09.621Z,9.35
2018-12-21T03:54:09.580Z,9.30
2018-12-21T03:55:09.588Z,9.31
2018-12-21T03:56:09.602Z,9.28
2018-12-21T03:57:09.588Z,9.30
2018-12-21T03:58:09.559Z,9.30
2018-12-21T03:59:09.542Z,9.38
2018-12-21T04:00:09.528Z,9.28
2018-12-21T04:01:09.592Z,9.39
2018-12-21T04:02:09.520Z,9.39
2018-12-21T04:03:09.510Z,9.38
2018-12-21T04:04:09.586Z,9.38
2018-12-21T04:05:09.490Z,9.38
2018-12-21T04:06:09.493Z,9.38
2018-12-21T04:07:09.509Z,9.38
2018-12-21T04:08:09.480Z,9.40
2018-12-21T04:09:09.469Z,9.40
2018-12-21T04:10:09.529Z,9.49
2018-12-21T04:11:09.492Z,9.48
2018-12-21T04:12:09.449Z,9.52
2018-12-21T04:13:09.449Z,9.45
2018-12-21T04:14:09.455Z,9.52
2018-12-21T04:15:09.417Z,9.49
2018-12-21T04:16:09.423Z,9.48
2018-12-21T04:17:09.518Z,9.52
2018-12-21T04:18:09.411Z,9.49
2018-12-21T04:19:09.429Z,9.57
2018-12-21T04:20:09.412Z,9.57
2018-12-21T04:21:09.403Z,9.63
2018-12-21T04:22:09.373Z,9.70
2018-12-21T04:23:09.407Z,9.60
2018-12-21T04:24:09.398Z,9.60
2018-12-21T04:25:09.407Z,9.63
2018-12-21T04:26:09.349Z,9.53
2018-12-21T04:27:09.345Z,9.63
2018-12-21T04:28:09.380Z,9.63
2018-12-21T04:29:09.350Z,9.64
2018-12-21T04:30:09.362Z,9.66
2018-12-21T04:31:09.311Z,9.61
2018-12-21T04:32:09.300Z,9.66
2018-12-21T04:33:09.294Z,9.63
2018-12-21T04:34:09.343Z,9.66
2018-12-21T04:35:09.305Z,9.66
2018-12-21T04:36:09.305Z,9.64
2018-12-21T04:37:09.286Z,9.68
2018-12-21T04:38:09.259Z,9.78
2018-12-21T04:39:09.255Z,9.75
2018-12-21T04:40:09.255Z,9.71
2018-12-21T04:41:09.247Z,9.63
2018-12-21T04:42:09.294Z,9.64
2018-12-21T04:43:09.254Z,9.68
2018-12-21T04:44:09.224Z,9.66
2018-12-21T04:45:09.268Z,9.61
2018-12-21T04:46:09.234Z,9.68
2018-12-21T04:47:09.223Z,9.56
2018-12-21T04:48:09.218Z,9.63
2018-12-21T04:49:09.204Z,9.66
2018-12-21T04:50:09.186Z,9.71
2018-12-21T04:51:09.166Z,9.73
2018-12-21T04:52:09.176Z,9.82
2018-12-21T04:53:09.207Z,9.76
2018-12-21T04:54:09.185Z,9.76
2018-12-21T04:55:09.144Z,9.70
2018-12-21T04:56:09.174Z,9.81
2018-12-21T04:57:09.183Z,9.85
2018-12-21T04:58:09.182Z,9.78
2018-12-21T04:59:09.770Z,9.91
2018-12-21T05:00:09.154Z,9.93
2018-12-21T05:01:18.017Z,9.96
2018-12-21T05:03:13.761Z,9.86
2018-12-21T05:04:19.678Z,9.97
2018-12-21T05:05:13.579Z,9.96
2018-12-21T05:06:13.606Z,9.96
2018-12-21T05:07:13.724Z,9.99
2018-12-21T05:08:13.563Z,9.96
2018-12-21T05:09:13.535Z,9.94
2018-12-21T05:10:13.533Z,9.91
2018-12-21T05:11:13.592Z,10.06
2018-12-21T05:12:13.518Z,10.03
2018-12-21T05:13:13.511Z,9.96
2018-12-21T05:14:13.508Z,9.94
2018-12-21T05:15:13.525Z,10.03
2018-12-21T05:16:13.490Z,10.00
2018-12-21T05:17:13.545Z,9.99
2018-12-21T05:18:13.498Z,10.00
2018-12-21T05:19:13.506Z,9.96
2018-12-21T05:20:13.490Z,10.01
2018-12-21T05:21:13.465Z,10.00
2018-12-21T05:22:13.468Z,10.12
2018-12-21T05:23:13.463Z,10.04
2018-12-21T05:24:13.487Z,10.03
2018-12-21T05:25:13.433Z,10.04
2018-12-21T05:26:13.427Z,10.06
2018-12-21T05:27:13.450Z,10.04
2018-12-21T05:28:13.406Z,10.06
2018-12-21T05:29:13.428Z,10.15
2018-12-21T05:30:13.441Z,10.06
2018-12-21T05:31:13.413Z,10.07
2018-12-21T05:32:13.388Z,10.06
2018-12-21T05:33:13.472Z,10.03
2018-12-21T05:34:13.362Z,9.93
2018-12-21T05:35:13.398Z,10.03
2018-12-21T05:36:13.380Z,9.94
2018-12-21T05:37:13.350Z,9.97
2018-12-21T05:38:13.338Z,9.93
2018-12-21T05:39:13.356Z,9.94
2018-12-21T05:40:13.343Z,9.96
2018-12-21T05:41:13.344Z,9.96
2018-12-21T05:42:13.368Z,9.93
2018-12-21T05:43:13.303Z,10.01
2018-12-21T05:44:13.311Z,9.94
2018-12-21T05:45:13.299Z,9.94
2018-12-21T05:46:13.377Z,9.91
2018-12-21T05:47:13.329Z,9.81
2018-12-21T05:48:13.274Z,9.85
2018-12-21T05:49:13.293Z,9.85
2018-12-21T05:50:13.281Z,9.75
2018-12-21T05:51:13.269Z,9.75
2018-12-21T05:52:13.249Z,9.82
2018-12-21T05:53:13.239Z,9.68
2018-12-21T05:54:13.241Z,9.71
2018-12-21T05:55:13.237Z,9.66
2018-12-21T05:56:13.239Z,9.67
2018-12-21T05:57:13.242Z,9.76
2018-12-21T05:58:13.214Z,9.67
2018-12-21T05:59:13.241Z,9.68
2018-12-21T06:00:13.225Z,9.70
2018-12-21T06:01:13.190Z,9.60
2018-12-21T06:02:13.236Z,9.73
2018-12-21T06:03:13.191Z,9.58
2018-12-21T06:04:13.289Z,9.73
2018-12-21T06:05:13.153Z,9.61
2018-12-21T06:06:13.151Z,9.58
2018-12-21T06:07:13.160Z,9.63
2018-12-21T06:08:13.134Z,9.64
2018-12-21T06:09:13.148Z,9.64
2018-12-21T06:10:13.144Z,9.58
2018-12-21T06:11:13.121Z,9.58
2018-12-21T06:12:13.127Z,9.52
2018-12-21T06:13:13.231Z,9.45
2018-12-21T06:14:13.110Z,9.52
2018-12-21T06:15:13.082Z,9.46
2018-12-21T06:16:13.086Z,9.46
2018-12-21T06:17:13.079Z,9.49
2018-12-21T06:18:13.076Z,9.38
2018-12-21T06:19:13.068Z,9.45
2018-12-21T06:20:21.821Z,9.48
2018-12-21T06:22:17.572Z,9.42
2018-12-21T06:23:17.522Z,9.38
2018-12-21T06:24:17.518Z,9.32
2018-12-21T06:25:17.637Z,9.30
2018-12-21T06:26:17.494Z,9.38
2018-12-21T06:27:17.482Z,9.35
2018-12-21T06:28:17.480Z,9.32
2018-12-21T06:29:17.477Z,9.32
2018-12-21T06:30:17.500Z,9.25
2018-12-21T06:31:18.771Z,9.40
2018-12-21T06:32:17.706Z,9.32
2018-12-21T06:33:17.794Z,9.32
2018-12-21T06:34:17.673Z,9.34
2018-12-21T06:35:17.470Z,9.30
2018-12-21T06:36:17.417Z,9.25
2018-12-21T06:37:17.406Z,9.31
2018-12-21T06:38:17.449Z,9.30
2018-12-21T06:39:17.425Z,9.30
2018-12-21T06:40:17.422Z,9.48
2018-12-21T06:41:17.446Z,9.40
2018-12-21T06:42:17.408Z,9.30
2018-12-21T06:43:17.383Z,9.38
2018-12-21T06:44:17.411Z,9.45
2018-12-21T06:45:17.365Z,9.35
2018-12-21T06:46:27.462Z,9.38
2018-12-21T06:48:21.875Z,9.40
2018-12-21T06:49:21.847Z,9.40
2018-12-21T06:50:21.841Z,9.40
2018-12-21T06:51:21.835Z,9.39
2018-12-21T06:52:21.837Z,9.34
2018-12-21T06:53:21.923Z,9.42
2018-12-21T06:54:21.793Z,9.45
2018-12-21T06:55:21.833Z,9.42
2018-12-21T06:56:21.798Z,9.31
2018-12-21T06:57:29.526Z,9.38
2018-12-21T06:59:35.368Z,9.46
2018-12-21T07:00:35.064Z,9.53
2018-12-21T07:02:30.751Z,9.38
2018-12-21T07:03:30.707Z,9.35
2018-12-21T07:04:30.701Z,9.46
2018-12-21T07:05:30.713Z,9.46
2018-12-21T07:06:30.721Z,9.50
2018-12-21T07:07:30.724Z,9.49
2018-12-21T07:08:30.880Z,9.49
2018-12-21T07:09:30.666Z,9.38
2018-12-21T07:10:30.657Z,9.48
2018-12-21T07:11:30.651Z,9.40
2018-12-21T07:12:30.654Z,9.40
2018-12-21T07:13:30.672Z,9.52
2018-12-21T07:14:30.639Z,9.52
2018-12-21T07:15:30.652Z,9.46
2018-12-21T07:16:30.640Z,9.56
2018-12-21T07:17:30.630Z,9.56
2018-12-21T07:18:30.662Z,9.56
2018-12-21T07:19:30.609Z,9.49
2018-12-21T07:20:30.610Z,9.56
2018-12-21T07:21:30.590Z,9.57
2018-12-21T07:22:30.619Z,9.53
2018-12-21T07:23:30.618Z,9.49
2018-12-21T07:24:30.585Z,9.46
2018-12-21T07:25:30.552Z,9.58
2018-12-21T07:26:30.543Z,9.48
2018-12-21T07:27:30.547Z,9.60
2018-12-21T07:28:30.551Z,9.61
2018-12-21T07:29:30.530Z,9.61
2018-12-21T07:30:30.531Z,9.64
2018-12-21T07:31:30.508Z,9.64
2018-12-21T07:32:30.499Z,9.57
2018-12-21T07:33:30.496Z,9.60
2018-12-21T07:34:30.494Z,9.58
2018-12-21T07:35:30.506Z,9.56
2018-12-21T07:36:30.520Z,9.56
2018-12-21T07:37:30.476Z,9.56
2018-12-21T07:38:30.507Z,9.58
2018-12-21T07:39:32.345Z,9.58
2018-12-21T07:40:30.458Z,9.68
2018-12-21T07:41:30.457Z,9.61
2018-12-21T07:42:30.449Z,9.63
2018-12-21T07:43:30.427Z,9.60
2018-12-21T07:44:30.455Z,9.61
2018-12-21T07:45:30.413Z,9.61
2018-12-21T07:46:30.425Z,9.57
2018-12-21T07:47:32.173Z,9.60
2018-12-21T07:48:30.414Z,9.56
2018-12-21T07:49:30.407Z,9.58
2018-12-21T07:50:30.401Z,9.64
2018-12-21T07:51:30.366Z,9.56
2018-12-21T07:52:30.362Z,9.57
2018-12-21T07:53:35.767Z,9.64
2018-12-21T07:54:30.344Z,9.56
2018-12-21T07:55:30.340Z,9.66
2018-12-21T07:56:30.364Z,9.70
2018-12-21T07:57:30.332Z,9.63
2018-12-21T07:58:30.322Z,9.60
2018-12-21T07:59:30.321Z,9.53
2018-12-21T08:00:30.325Z,9.67
2018-12-21T08:01:30.301Z,9.68
2018-12-21T08:02:30.286Z,9.64
2018-12-21T08:03:30.316Z,9.73
2018-12-21T08:04:30.408Z,9.76
2018-12-21T08:05:30.282Z,9.57
2018-12-21T08:06:30.280Z,9.73
2018-12-21T08:07:30.253Z,9.70
2018-12-21T08:08:30.269Z,9.53
2018-12-21T08:09:30.254Z,9.66
2018-12-21T08:10:30.238Z,9.60
2018-12-21T08:11:30.242Z,9.71
2018-12-21T08:12:30.215Z,9.67
2018-12-21T08:13:30.223Z,9.70
2018-12-21T08:14:30.217Z,9.66
2018-12-21T08:15:30.200Z,9.56
2018-12-21T08:16:30.192Z,9.66
2018-12-21T08:17:30.184Z,9.76
2018-12-21T08:18:30.207Z,9.76
2018-12-21T08:19:32.088Z,9.76
2018-12-21T08:20:30.218Z,9.68
2018-12-21T08:21:30.175Z,9.71
2018-12-21T08:22:30.215Z,9.71
2018-12-21T08:23:30.169Z,9.68
2018-12-21T08:24:30.145Z,9.81
2018-12-21T08:25:30.128Z,9.73
2018-12-21T08:26:30.140Z,9.78
2018-12-21T08:27:30.123Z,9.75
2018-12-21T08:28:30.126Z,9.78
2018-12-21T08:29:30.148Z,9.76
2018-12-21T08:30:30.180Z,9.83
2018-12-21T08:31:30.123Z,9.83
2018-12-21T08:32:30.160Z,9.81
2018-12-21T08:33:30.076Z,9.82
2018-12-21T08:34:30.075Z,9.83
2018-12-21T08:35:30.062Z,9.85
2018-12-21T08:36:30.063Z,9.82
2018-12-21T08:37:30.051Z,9.75
2018-12-21T08:38:30.056Z,9.83
2018-12-21T08:39:30.047Z,9.83
2018-12-21T08:40:30.075Z,9.79
2018-12-21T08:41:30.037Z,9.76
2018-12-21T08:42:30.006Z,9.88
2018-12-21T08:43:30.014Z,9.89
2018-12-21T08:44:29.990Z,9.88
2018-12-21T08:45:30.004Z,9.94
2018-12-21T08:46:29.979Z,9.96
2018-12-21T08:47:29.995Z,9.91
2018-12-21T08:48:29.990Z,9.97
2018-12-21T08:49:30.002Z,10.00
2018-12-21T08:50:29.966Z,10.03
2018-12-21T08:51:29.959Z,10.00
2018-12-21T08:52:29.964Z,10.06
2018-12-21T08:53:29.935Z,10.03
2018-12-21T08:54:29.960Z,9.89
2018-12-21T08:55:29.930Z,9.97
2018-12-21T08:56:38.591Z,10.00
2018-12-21T08:58:35.423Z,10.01
2018-12-21T08:59:35.434Z,10.03
2018-12-21T09:00:35.421Z,10.04
2018-12-21T09:01:35.537Z,10.06
2018-12-21T09:02:35.521Z,10.06
2018-12-21T09:03:35.461Z,10.10
2018-12-21T09:04:35.417Z,10.17
2018-12-21T09:05:35.362Z,10.06
2018-12-21T09:06:35.363Z,10.15
2018-12-21T09:07:37.145Z,10.22
2018-12-21T09:08:35.331Z,10.18
2018-12-21T09:09:35.348Z,10.17
2018-12-21T09:10:35.339Z,10.14
2018-12-21T09:11:35.359Z,10.18
2018-12-21T09:12:35.312Z,10.24
2018-12-21T09:13:35.339Z,10.17
2018-12-21T09:14:35.282Z,10.18
2018-12-21T09:15:35.276Z,10.32
2018-12-21T09:16:35.272Z,10.26
2018-12-21T09:17:35.296Z,10.26
2018-12-21T09:18:35.255Z,10.26
2018-12-21T09:19:35.312Z,10.33
2018-12-21T09:20:35.244Z,10.28
2018-12-21T09:21:35.258Z,10.30
2018-12-21T09:22:35.274Z,10.30
2018-12-21T09:23:35.221Z,10.33
2018-12-21T09:24:35.238Z,10.37
2018-12-21T09:25:35.208Z,10.36
2018-12-21T09:26:35.202Z,10.36
2018-12-21T09:27:35.207Z,10.32
2018-12-21T09:28:35.180Z,10.36
2018-12-21T09:29:35.182Z,10.39
2018-12-21T09:30:35.190Z,10.37
2018-12-21T09:31:35.274Z,10.32
2018-12-21T09:32:35.214Z,10.30
2018-12-21T09:33:35.176Z,10.36
2018-12-21T09:34:35.159Z,10.39
2018-12-21T09:35:35.144Z,10.39
2018-12-21T09:36:35.129Z,10.37
2018-12-21T09:37:35.128Z,10.43
2018-12-21T09:38:35.125Z,10.42
2018-12-21T09:39:35.143Z,10.40
2018-12-21T09:40:35.120Z,10.33
2018-12-21T09:41:35.099Z,10.44
2018-12-21T09:42:35.102Z,10.40
2018-12-21T09:43:35.116Z,10.37
2018-12-21T09:44:35.078Z,10.39
2018-12-21T09:45:35.075Z,10.33
2018-12-21T09:46:35.095Z,10.36
2018-12-21T09:47:35.068Z,10.40
2018-12-21T09:48:35.078Z,10.33
2018-12-21T09:49:35.046Z,10.32
2018-12-21T09:50:35.062Z,10.43
2018-12-21T09:51:35.033Z,10.33
2018-12-21T09:52:35.061Z,10.34
2018-12-21T09:53:35.059Z,10.34
2018-12-21T09:54:35.016Z,10.39
2018-12-21T09:55:35.054Z,10.44
2018-12-21T09:56:34.997Z,10.43
2018-12-21T09:57:35.005Z,10.44
2018-12-21T09:58:35.019Z,10.43
2018-12-21T09:59:34.984Z,10.43
2018-12-21T10:00:35.030Z,10.37
2018-12-21T10:01:34.972Z,10.44
2018-12-21T10:02:35.904Z,10.42
2018-12-21T10:03:34.959Z,10.42
2018-12-21T10:04:34.963Z,10.39
2018-12-21T10:05:34.984Z,10.43
2018-12-21T10:06:34.951Z,10.42
2018-12-21T10:07:34.975Z,10.40
2018-12-21T10:08:34.925Z,10.43
2018-12-21T10:09:34.921Z,10.39
2018-12-21T10:10:34.916Z,10.56
2018-12-21T10:11:34.931Z,10.56
2018-12-21T10:12:34.937Z,10.51
2018-12-21T10:13:34.920Z,10.47
2018-12-21T10:14:34.914Z,10.42
2018-12-21T10:15:34.885Z,10.39
2018-12-21T10:16:34.870Z,10.55
2018-12-21T10:17:34.862Z,10.52
2018-12-21T10:18:34.895Z,10.53
2018-12-21T10:19:34.861Z,10.55
2018-12-21T10:20:34.868Z,10.37
2018-12-21T10:21:34.897Z,10.44
2018-12-21T10:22:34.831Z,10.52
2018-12-21T10:23:34.855Z,10.52
2018-12-21T10:24:34.864Z,10.55
2018-12-21T10:25:34.814Z,10.52
2018-12-21T10:26:34.873Z,10.46
2018-12-21T10:27:34.826Z,10.51
2018-12-21T10:28:34.819Z,10.53
2018-12-21T10:29:34.789Z,10.55
2018-12-21T10:30:34.844Z,10.55
2018-12-21T10:31:34.849Z,10.53
2018-12-21T10:32:34.816Z,10.53
2018-12-21T10:33:34.764Z,10.43
2018-12-21T10:34:34.810Z,10.55
2018-12-21T10:35:34.793Z,10.39
2018-12-21T10:36:34.763Z,10.39
2018-12-21T10:37:34.777Z,10.44
2018-12-21T10:38:34.756Z,10.42
2018-12-21T10:39:34.765Z,10.55
2018-12-21T10:40:43.410Z,10.52
2018-12-21T10:42:39.252Z,10.59
2018-12-21T10:43:39.205Z,10.52
2018-12-21T10:45:44.784Z,10.59
2018-12-21T10:46:44.757Z,10.70
2018-12-21T10:47:44.819Z,10.74
2018-12-21T10:48:44.691Z,10.78
2018-12-21T10:49:44.739Z,10.66
2018-12-21T10:50:44.666Z,10.68
2018-12-21T10:53:16.879Z,10.70
2018-12-21T10:54:26.983Z,10.66
2018-12-21T10:56:21.260Z,10.60
2018-12-21T10:57:30.895Z,10.66
2018-12-21T10:59:25.760Z,10.74
2018-12-21T11:00:25.689Z,10.78
2018-12-21T11:01:25.697Z,10.77
2018-12-21T11:02:25.707Z,10.76
2018-12-21T11:03:34.471Z,10.68
2018-12-21T11:05:30.213Z,10.66
2018-12-21T11:06:30.162Z,10.70
2018-12-21T11:07:30.136Z,10.68
2018-12-21T11:08:30.136Z,10.73
2018-12-21T11:09:30.140Z,10.70
2018-12-21T11:10:30.103Z,10.66
2018-12-21T11:11:30.108Z,10.74
2018-12-21T11:12:30.092Z,10.84
2018-12-21T11:13:30.110Z,10.77
2018-12-21T11:14:30.091Z,10.86
2018-12-21T11:15:30.104Z,10.83
2018-12-21T11:16:30.095Z,10.77
2018-12-21T11:17:30.106Z,10.83
2018-12-21T11:18:30.048Z,10.74
2018-12-21T11:19:30.136Z,10.83
2018-12-21T11:20:30.062Z,10.73
2018-12-21T11:21:30.054Z,10.81
2018-12-21T11:22:30.031Z,10.76
2018-12-21T11:23:38.692Z,10.86
2018-12-21T11:25:42.196Z,10.86
2018-12-21T11:26:43.163Z,10.74
2018-12-21T11:28:38.982Z,10.70
2018-12-21T11:29:38.972Z,10.78
2018-12-21T11:30:38.956Z,10.66
2018-12-21T11:31:38.951Z,10.71
2018-12-21T11:32:47.583Z,10.76
2018-12-21T11:34:54.958Z,10.71
2018-12-21T11:35:54.674Z,10.70
2018-12-21T11:36:54.695Z,10.71
2018-12-21T11:37:54.660Z,10.73
2018-12-21T11:38:54.687Z,10.68
2018-12-21T11:39:54.682Z,10.66
2018-12-21T11:40:54.660Z,10.65
2018-12-21T11:41:54.638Z,10.66
2018-12-21T11:42:54.668Z,10.68
2018-12-21T11:43:54.627Z,10.68
2018-12-21T11:44:54.621Z,10.71
2018-12-21T11:45:54.626Z,10.83
2018-12-21T11:46:54.617Z,10.71
2018-12-21T11:47:54.596Z,10.73
2018-12-21T11:48:54.592Z,10.76
2018-12-21T11:49:54.597Z,10.73
2018-12-21T11:50:54.694Z,10.84
2018-12-21T11:51:54.575Z,10.76
2018-12-21T11:52:54.576Z,10.76
2018-12-21T11:53:54.589Z,10.84
2018-12-21T11:54:54.590Z,10.77
2018-12-21T11:55:54.574Z,10.83
2018-12-21T11:56:54.544Z,10.71
2018-12-21T11:57:54.534Z,10.68
2018-12-21T11:58:54.548Z,10.76
2018-12-21T11:59:54.530Z,10.80
2018-12-21T12:00:54.559Z,10.70
2018-12-21T12:01:54.578Z,10.83
2018-12-21T12:02:54.503Z,10.84
2018-12-21T12:03:54.530Z,10.71
2018-12-21T12:04:54.512Z,10.84
2018-12-21T12:05:54.488Z,10.83
2018-12-21T12:06:54.478Z,10.80
2018-12-21T12:07:54.494Z,10.91
2018-12-21T12:08:54.484Z,10.92
2018-12-21T12:09:54.471Z,10.89
2018-12-21T12:10:54.571Z,10.91
2018-12-21T12:11:54.496Z,10.91
2018-12-21T12:12:54.461Z,10.86
2018-12-21T12:13:54.476Z,10.80
2018-12-21T12:14:54.454Z,10.88
2018-12-21T12:15:54.423Z,10.80
2018-12-21T12:16:54.452Z,10.80
2018-12-21T12:17:54.427Z,10.73
2018-12-21T12:18:54.412Z,10.88
2018-12-21T12:19:54.402Z,10.83
2018-12-21T12:20:54.419Z,10.73
2018-12-21T12:21:54.435Z,10.73
2018-12-21T12:22:54.380Z,10.78
2018-12-21T12:23:54.423Z,10.76
2018-12-21T12:24:55.429Z,10.73
2018-12-21T12:25:54.384Z,10.81
2018-12-21T12:26:54.398Z,10.86
2018-12-21T12:27:54.346Z,10.68
2018-12-21T12:28:54.399Z,10.83
2018-12-21T12:29:54.334Z,10.86
2018-12-21T12:30:54.361Z,10.84
2018-12-21T12:31:54.329Z,10.81
2018-12-21T12:32:54.327Z,10.86
2018-12-21T12:33:54.316Z,10.88
2018-12-21T12:34:54.321Z,10.83
2018-12-21T12:35:54.392Z,10.83
2018-12-21T12:36:54.294Z,10.88
2018-12-21T12:37:54.284Z,10.95
2018-12-21T12:38:54.273Z,10.98
2018-12-21T12:39:54.290Z,10.94
2018-12-21T12:40:54.272Z,10.95
2018-12-21T12:41:54.277Z,10.92
2018-12-21T12:42:54.252Z,11.01
2018-12-21T12:43:54.272Z,11.01
2018-12-21T12:44:54.253Z,11.02
2018-12-21T12:45:54.247Z,11.02
2018-12-21T12:46:54.248Z,11.01
2018-12-21T12:47:54.260Z,11.03
2018-12-21T12:48:54.224Z,11.09
2018-12-21T12:50:03.879Z,11.03
2018-12-21T12:51:48.643Z,11.06
2018-12-21T12:52:48.623Z,11.02
2018-12-21T12:53:48.626Z,11.02
2018-12-21T12:54:48.613Z,11.03
2018-12-21T12:55:48.593Z,11.10
2018-12-21T12:56:48.601Z,10.99
2018-12-21T12:57:48.590Z,10.99
2018-12-21T12:58:48.614Z,11.02
2018-12-21T12:59:48.598Z,11.06
2018-12-21T13:00:48.580Z,10.98
2018-12-21T13:01:48.562Z,11.03
2018-12-21T13:02:48.580Z,11.02
2018-12-21T13:03:48.548Z,11.03
2018-12-21T13:04:48.555Z,11.02
2018-12-21T13:05:48.552Z,11.13
2018-12-21T13:06:48.527Z,11.02
2018-12-21T13:07:48.586Z,11.06
2018-12-21T13:08:48.527Z,11.09
2018-12-21T13:09:48.537Z,11.02
2018-12-21T13:10:48.507Z,11.06
2018-12-21T13:11:48.510Z,11.09
2018-12-21T13:12:48.493Z,11.03
2018-12-21T13:13:48.510Z,11.10
2018-12-21T13:14:48.483Z,11.14
2018-12-21T13:15:48.509Z,11.25
2018-12-21T13:16:48.474Z,11.20
2018-12-21T13:17:48.472Z,11.14
2018-12-21T13:18:48.463Z,11.17
2018-12-21T13:19:48.456Z,11.24
2018-12-21T13:20:48.463Z,11.16
2018-12-21T13:21:48.439Z,11.20
2018-12-21T13:22:48.437Z,11.27
2018-12-21T13:23:48.432Z,11.20
2018-12-21T13:24:48.420Z,11.20
2018-12-21T13:25:48.439Z,11.27
2018-12-21T13:26:48.410Z,11.24
2018-12-21T13:27:48.407Z,11.21
2018-12-21T13:28:48.404Z,11.20
2018-12-21T13:29:48.394Z,11.20
2018-12-21T13:30:48.402Z,11.24
2018-12-21T13:31:48.381Z,11.25
2018-12-21T13:32:48.383Z,11.21
2018-12-21T13:33:48.391Z,11.21
2018-12-21T13:34:48.361Z,11.20
2018-12-21T13:35:48.395Z,11.28
2018-12-21T13:36:48.351Z,11.24
2018-12-21T13:37:48.355Z,11.21
2018-12-21T13:38:48.350Z,11.21
2018-12-21T13:39:48.371Z,11.25
2018-12-21T13:40:48.320Z,11.28
2018-12-21T13:41:48.336Z,11.21
2018-12-21T13:42:48.311Z,11.25
2018-12-21T13:43:48.342Z,11.24
2018-12-21T13:44:48.308Z,11.24
2018-12-21T13:45:48.297Z,11.31
2018-12-21T13:46:48.313Z,11.28